createdAt,value
2023-05-10T00:02:26.894Z,80.08
2023-05-10T00:04:58.374Z,79.45
2023-05-10T00:07:39.049Z,79.22
2023-05-10T00:10:06.837Z,79.21
2023-05-10T00:12:45.661Z,79.57
2023-05-10T00:15:16.201Z,78.71
2023-05-10T00:17:47.145Z,78.52
2023-05-10T00:21:05.524Z,78.01
2023-05-10T00:23:08.759Z,78.21
2023-05-10T00:25:45.646Z,77.48
2023-05-10T00:31:06.352Z,76.86
2023-05-10T00:36:21.141Z,77.49
2023-05-10T00:41:36.667Z,78.51
2023-05-10T00:44:12.793Z,78.36
2023-05-10T01:02:49.027Z,78.84
2023-05-10T01:05:18.566Z,78.77
2023-05-10T01:08:37.864Z,78.88
2023-05-10T01:10:42.589Z,78.18
2023-05-10T01:13:12.397Z,78.58
2023-05-10T01:15:40.752Z,78.64
2023-05-10T01:21:28.812Z,79.16
2023-05-10T01:23:53.388Z,79.03
2023-05-10T01:34:26.330Z,79.30
2023-05-10T01:36:56.332Z,80.01
2023-05-10T01:39:24.486Z,80.53
2023-05-10T01:41:52.086Z,80.13
2023-05-10T01:44:21.157Z,79.43
2023-05-10T01:46:51.299Z,77.70
2023-05-10T01:49:20.890Z,78.63
2023-05-10T01:51:50.093Z,79.80
2023-05-10T01:54:17.053Z,79.06
2023-05-10T01:56:45.700Z,79.77
2023-05-10T01:59:13.256Z,80.27
2023-05-10T02:01:51.581Z,80.40
2023-05-10T02:04:22.715Z,80.22
2023-05-10T02:06:53.323Z,81.10
2023-05-10T02:12:08.829Z,79.73
2023-05-10T02:30:48.877Z,79.17
2023-05-10T02:33:18.537Z,79.43
2023-05-10T02:36:07.604Z,80.51
2023-05-10T02:38:44.590Z,80.02
2023-05-10T02:41:21.696Z,80.12
2023-05-10T02:45:07.804Z,79.86
2023-05-10T02:46:41.896Z,80.10
2023-05-10T02:49:12.428Z,79.29
2023-05-10T02:51:46.615Z,79.40
2023-05-10T02:57:09.485Z,79.69
2023-05-10T03:02:30.308Z,79.27
2023-05-10T03:38:07.611Z,77.82
2023-05-10T03:46:22.888Z,79.09
2023-05-10T03:49:04.366Z,78.40
2023-05-10T03:51:34.077Z,78.42
2023-05-10T03:59:42.680Z,78.03
2023-05-10T04:02:13.457Z,78.88
2023-05-10T04:04:52.632Z,79.08
2023-05-10T04:10:21.370Z,78.76
2023-05-10T04:12:58.316Z,78.55
2023-05-10T04:15:25.341Z,78.96
2023-05-10T04:17:54.547Z,79.47
2023-05-10T04:20:30.474Z,78.81
2023-05-10T04:23:07.430Z,79.64
2023-05-10T04:25:36.410Z,79.31
2023-05-10T04:28:18.877Z,79.95
2023-05-10T04:30:47.953Z,80.07
2023-05-10T04:33:15.559Z,80.06
2023-05-10T04:35:51.474Z,80.43
2023-05-10T04:38:27.264Z,80.80
2023-05-10T04:40:54.389Z,80.27
2023-05-10T04:43:26.021Z,80.58
2023-05-10T04:45:55.094Z,79.67
2023-05-10T04:48:22.205Z,81.05
2023-05-10T04:50:49.824Z,80.99
2023-05-10T04:53:18.804Z,81.37
2023-05-10T04:55:47.014Z,80.53
2023-05-10T04:58:16.258Z,80.71
2023-05-10T05:00:43.193Z,80.28
2023-05-10T05:03:11.899Z,80.94
2023-05-10T05:05:40.984Z,80.39
2023-05-10T05:08:07.986Z,80.18
2023-05-10T05:10:36.897Z,80.30
2023-05-10T05:13:05.264Z,79.75
2023-05-10T05:15:33.814Z,80.72
2023-05-10T05:18:02.909Z,80.66
2023-05-10T05:20:30.987Z,79.60
2023-05-10T05:23:05.663Z,79.89
2023-05-10T05:25:33.286Z,79.82
2023-05-10T05:28:06.692Z,80.09
2023-05-10T05:30:37.933Z,79.20
2023-05-10T05:33:14.906Z,80.18
2023-05-10T05:35:43.679Z,79.72
2023-05-10T05:38:25.211Z,79.32
2023-05-10T05:43:36.106Z,77.97
2023-05-10T05:46:08.552Z,78.72
2023-05-10T05:48:36.884Z,78.74
2023-05-10T05:51:07.045Z,78.58
2023-05-10T05:56:18.627Z,78.91
2023-05-10T05:58:46.345Z,79.10
2023-05-10T06:01:17.534Z,79.09
2023-05-10T06:03:53.591Z,78.02
2023-05-10T06:06:23.512Z,78.04
2023-05-10T06:08:53.708Z,77.15
2023-05-10T06:11:22.265Z,76.73
2023-05-10T06:14:12.040Z,75.58
2023-05-10T06:27:52.698Z,72.72
2023-05-10T06:38:36.434Z,70.47
2023-05-10T06:41:14.170Z,69.63
2023-05-10T06:43:46.608Z,69.03
2023-05-10T06:51:57.002Z,68.29
2023-05-10T06:54:28.949Z,69.47
2023-05-10T06:59:43.855Z,69.65
2023-05-10T07:02:14.028Z,69.04
2023-05-10T07:04:42.623Z,65.39
2023-05-10T07:07:10.214Z,68.38
2023-05-10T07:09:38.838Z,66.54
2023-05-10T07:12:10.323Z,66.04
2023-05-10T07:14:40.110Z,66.67
2023-05-10T07:17:08.823Z,66.84
2023-05-10T07:19:36.306Z,64.69
2023-05-10T07:22:03.945Z,63.94
2023-05-10T07:24:36.390Z,65.70
2023-05-10T07:27:06.193Z,65.00
2023-05-10T07:29:36.417Z,64.88
2023-05-10T07:32:05.767Z,65.91
2023-05-10T07:34:45.132Z,66.15
2023-05-10T07:37:12.678Z,66.33
2023-05-10T07:39:41.443Z,65.16
2023-05-10T07:42:08.862Z,65.88
2023-05-10T07:44:37.525Z,66.02
2023-05-10T07:47:06.310Z,63.58
2023-05-10T07:49:35.205Z,65.15
2023-05-10T07:57:24.577Z,63.57
2023-05-10T08:06:24.594Z,63.00
2023-05-10T08:13:41.532Z,60.45
2023-05-10T08:16:14.909Z,54.97
2023-05-10T08:18:41.890Z,56.11
2023-05-10T08:21:12.598Z,56.19
2023-05-10T08:29:48.984Z,58.89
2023-05-10T08:32:16.014Z,54.34
2023-05-10T08:34:45.587Z,53.88
2023-05-10T08:37:19.249Z,56.58
2023-05-10T08:39:55.039Z,57.25
2023-05-10T08:42:26.734Z,56.59
2023-05-10T08:56:08.848Z,56.77
2023-05-10T09:14:43.153Z,55.58
2023-05-10T09:17:13.390Z,58.04
2023-05-10T09:22:32.677Z,58.96
2023-05-10T09:25:06.735Z,57.17
2023-05-10T09:27:42.920Z,57.45
2023-05-10T09:32:57.318Z,54.54
2023-05-10T09:35:29.768Z,52.81
2023-05-10T09:37:56.923Z,53.91
2023-05-10T09:40:26.245Z,53.62
2023-05-10T09:42:56.682Z,54.13
2023-05-10T09:45:27.137Z,53.85
2023-05-10T09:47:56.345Z,52.24
2023-05-10T09:50:24.929Z,52.11
2023-05-10T09:52:52.540Z,51.04
2023-05-10T09:55:21.634Z,55.66
2023-05-10T09:57:52.095Z,52.90
2023-05-10T10:00:21.235Z,52.26
2023-05-10T10:02:50.298Z,54.87
2023-05-10T10:05:19.373Z,51.21
2023-05-10T10:07:48.077Z,54.01
2023-05-10T10:10:17.507Z,54.28
2023-05-10T10:12:47.708Z,54.01
2023-05-10T10:15:19.333Z,51.09
2023-05-10T10:25:57.483Z,49.59
2023-05-10T10:28:26.060Z,50.39
2023-05-10T10:30:55.661Z,49.60
2023-05-10T10:33:28.303Z,50.37
2023-05-10T10:35:55.904Z,53.13
2023-05-10T10:38:23.450Z,48.94
2023-05-10T10:40:52.039Z,50.01
2023-05-10T10:43:19.626Z,54.73
2023-05-10T10:45:48.227Z,50.29
2023-05-10T10:48:16.830Z,49.50
2023-05-10T10:50:46.412Z,47.62
2023-05-10T10:53:14.072Z,52.20
2023-05-10T10:55:43.034Z,51.02
2023-05-10T10:58:10.229Z,46.85
2023-05-10T11:00:38.936Z,46.13
2023-05-10T11:03:07.558Z,44.04
2023-05-10T11:05:36.058Z,43.81
2023-05-10T11:08:03.622Z,38.10
2023-05-10T11:10:32.237Z,42.63
2023-05-10T11:13:00.812Z,42.72
2023-05-10T11:15:28.392Z,42.60
2023-05-10T11:17:56.049Z,42.98
2023-05-10T11:20:23.796Z,42.18
2023-05-10T11:22:51.191Z,41.94
2023-05-10T11:25:18.771Z,41.00
2023-05-10T11:27:46.387Z,42.69
2023-05-10T11:30:14.155Z,44.69
2023-05-10T11:32:41.575Z,43.51
2023-05-10T11:35:09.137Z,45.75
2023-05-10T11:37:35.757Z,47.05
2023-05-10T11:40:02.329Z,45.45
2023-05-10T11:42:30.904Z,46.16
2023-05-10T11:44:58.507Z,47.64
2023-05-10T11:47:26.147Z,47.66
2023-05-10T11:49:54.685Z,49.91
2023-05-10T11:52:21.294Z,49.01
2023-05-10T11:54:49.893Z,48.73
2023-05-10T11:57:17.552Z,48.66
2023-05-10T11:59:46.057Z,45.27
2023-05-10T12:02:13.676Z,46.42
2023-05-10T12:04:42.647Z,48.64
2023-05-10T12:07:09.866Z,47.84
2023-05-10T12:09:43.895Z,48.70
2023-05-10T12:12:11.124Z,46.98
2023-05-10T12:14:38.667Z,47.23
2023-05-10T12:17:07.254Z,48.72
2023-05-10T12:19:34.831Z,48.24
2023-05-10T12:22:01.406Z,46.88
2023-05-10T12:24:28.033Z,47.80
2023-05-10T12:26:54.561Z,47.44
2023-05-10T12:29:21.204Z,47.38
2023-05-10T12:31:48.848Z,45.36
2023-05-10T12:34:16.397Z,47.69
2023-05-10T12:36:42.913Z,47.59
2023-05-10T12:39:09.430Z,49.96
2023-05-10T12:41:35.919Z,48.06
2023-05-10T12:44:02.771Z,48.15
2023-05-10T12:46:30.505Z,48.55
2023-05-10T12:49:07.761Z,48.93
2023-05-10T12:51:35.673Z,47.83
2023-05-10T12:54:03.170Z,48.99
2023-05-10T12:56:30.764Z,48.91
2023-05-10T12:58:57.366Z,47.12
2023-05-10T13:01:24.980Z,47.72
2023-05-10T13:03:52.539Z,47.20
2023-05-10T13:06:19.038Z,46.36
2023-05-10T13:08:47.087Z,47.68
2023-05-10T13:11:16.037Z,46.68
2023-05-10T13:13:42.882Z,44.73
2023-05-10T13:16:09.488Z,46.84
2023-05-10T13:18:38.094Z,47.59
2023-05-10T13:21:05.672Z,46.59
2023-05-10T13:23:32.148Z,48.17
2023-05-10T13:25:58.876Z,49.29
2023-05-10T13:28:25.470Z,47.54
2023-05-10T13:30:53.059Z,48.62
2023-05-10T13:33:20.655Z,47.62
2023-05-10T13:35:48.250Z,48.37
2023-05-10T13:38:14.925Z,49.72
2023-05-10T13:40:42.407Z,47.96
2023-05-10T13:43:10.011Z,46.70
2023-05-10T13:45:38.595Z,47.41
2023-05-10T13:48:05.206Z,46.98
2023-05-10T13:50:32.800Z,46.24
2023-05-10T13:53:00.361Z,47.46
2023-05-10T13:55:26.945Z,47.81
2023-05-10T13:57:54.760Z,46.20
2023-05-10T14:00:21.190Z,47.13
2023-05-10T14:02:52.757Z,46.27
2023-05-10T14:05:25.150Z,45.94
2023-05-10T14:07:54.025Z,48.60
2023-05-10T14:10:25.673Z,47.61
2023-05-10T14:13:01.225Z,48.50
2023-05-10T14:15:29.990Z,48.07
2023-05-10T14:18:01.188Z,47.86
2023-05-10T14:20:51.026Z,47.84
2023-05-10T14:23:29.241Z,49.81
2023-05-10T14:28:42.424Z,47.95
2023-05-10T14:31:15.463Z,49.16
2023-05-10T14:33:45.205Z,48.45
2023-05-10T14:36:12.959Z,47.22
2023-05-10T14:38:42.604Z,49.15
2023-05-10T14:41:17.079Z,48.24
2023-05-10T14:43:52.216Z,48.18
2023-05-10T14:46:22.625Z,49.47
2023-05-10T14:48:49.863Z,49.33
2023-05-10T14:51:17.602Z,50.15
2023-05-10T14:53:55.632Z,51.99
2023-05-10T14:56:25.275Z,52.63
2023-05-10T14:59:01.338Z,52.84
2023-05-10T15:01:31.017Z,51.00
2023-05-10T15:04:00.765Z,52.04
2023-05-10T15:06:31.306Z,52.78
2023-05-10T15:08:59.976Z,52.81
2023-05-10T15:11:32.152Z,51.95
2023-05-10T15:14:00.269Z,52.26
2023-05-10T15:19:12.564Z,52.28
2023-05-10T15:35:50.839Z,51.59
2023-05-10T15:38:18.297Z,51.23
2023-05-10T15:40:46.891Z,50.16
2023-05-10T15:43:15.570Z,50.34
2023-05-10T15:48:26.768Z,52.19
2023-05-10T15:50:54.548Z,51.41
2023-05-10T15:53:23.628Z,51.39
2023-05-10T15:55:50.741Z,51.85
2023-05-10T15:58:25.238Z,52.12
2023-05-10T16:00:54.940Z,52.43
2023-05-10T16:03:23.578Z,52.87
2023-05-10T16:08:33.535Z,55.10
2023-05-10T16:16:23.011Z,54.87
2023-05-10T16:24:36.750Z,59.71
2023-05-10T16:27:08.177Z,60.56
2023-05-10T16:40:33.514Z,58.47
2023-05-10T16:48:23.475Z,57.12
2023-05-10T16:50:51.220Z,55.93
2023-05-10T16:53:38.981Z,52.60
2023-05-10T17:07:09.330Z,53.11
2023-05-10T18:31:33.430Z,62.06
2023-05-10T18:34:09.127Z,62.32
2023-05-10T18:47:44.611Z,62.01
2023-05-10T19:06:44.231Z,60.42
2023-05-10T19:09:10.826Z,60.46
2023-05-10T19:11:39.429Z,59.68
2023-05-10T19:14:06.096Z,60.03
2023-05-10T19:16:37.365Z,59.76
2023-05-10T19:19:06.397Z,60.61
2023-05-10T19:24:18.584Z,60.68
2023-05-10T19:26:50.041Z,60.58
2023-05-10T19:29:18.122Z,60.19
2023-05-10T19:31:52.034Z,61.18
2023-05-10T19:34:29.079Z,61.48
2023-05-10T19:37:06.464Z,58.49
2023-05-10T19:40:03.526Z,60.88
2023-05-10T19:48:16.627Z,60.75
2023-05-10T19:50:47.021Z,60.22
2023-05-10T19:53:16.904Z,62.08
2023-05-10T20:14:48.621Z,60.94
2023-05-10T20:19:58.333Z,61.46
2023-05-10T20:22:35.949Z,62.35
2023-05-10T20:27:45.808Z,61.07
2023-05-10T20:30:22.003Z,61.31
2023-05-10T20:32:52.882Z,60.61
2023-05-10T20:38:02.614Z,60.01
2023-05-10T20:51:31.123Z,61.85
2023-05-10T21:02:06.667Z,59.70
2023-05-10T21:07:26.360Z,59.43
2023-05-10T21:21:09.654Z,59.78
2023-05-10T21:32:24.513Z,61.13
2023-05-10T21:40:21.112Z,59.72
2023-05-10T21:43:07.614Z,61.07
2023-05-10T21:48:24.488Z,63.51
2023-05-10T21:53:42.017Z,62.08
2023-05-10T22:12:29.180Z,62.63
2023-05-10T22:17:43.756Z,61.76
2023-05-10T22:20:18.531Z,61.48
2023-05-10T22:52:29.629Z,65.81
2023-05-10T22:57:59.052Z,65.85
2023-05-10T23:14:12.561Z,66.33
2023-05-10T23:19:50.266Z,67.21
2023-05-10T23:25:11.296Z,65.11
2023-05-10T23:27:46.867Z,64.97
2023-05-10T23:49:22.931Z,64.55
